sensor_id;sensor_type;location;lat;lon;timestamp;P1;durP1;ratioP1;P2;durP2;ratioP2
14732;SDS011;7457;50.960;6.830;2022-09-09T00:09:35;2.67;;;1.42;;
14732;SDS011;7457;50.960;6.830;2022-09-09T00:17:33;2.35;;;1.10;;
14732;SDS011;7457;50.960;6.830;2022-09-09T00:20:14;1.67;;;1.20;;
14732;SDS011;7457;50.960;6.830;2022-09-09T00:23:10;3.05;;;1.38;;
14732;SDS011;7457;50.960;6.830;2022-09-09T00:25:34;4.68;;;1.23;;
14732;SDS011;7457;50.960;6.830;2022-09-09T00:28:13;3.00;;;1.00;;
14732;SDS011;7457;50.960;6.830;2022-09-09T00:30:43;2.05;;;1.45;;
14732;SDS011;7457;50.960;6.830;2022-09-09T00:33:13;1.83;;;1.25;;
14732;SDS011;7457;50.960;6.830;2022-09-09T00:36:04;2.38;;;1.08;;
14732;SDS011;7457;50.960;6.830;2022-09-09T00:38:35;2.10;;;1.20;;
14732;SDS011;7457;50.960;6.830;2022-09-09T00:41:11;1.95;;;1.50;;
14732;SDS011;7457;50.960;6.830;2022-09-09T00:43:57;4.22;;;1.52;;
14732;SDS011;7457;50.960;6.830;2022-09-09T00:57:30;2.78;;;1.50;;
14732;SDS011;7457;50.960;6.830;2022-09-09T01:11:22;2.33;;;1.23;;
14732;SDS011;7457;50.960;6.830;2022-09-09T01:16:56;3.85;;;1.30;;
14732;SDS011;7457;50.960;6.830;2022-09-09T01:22:18;1.00;;;0.90;;
14732;SDS011;7457;50.960;6.830;2022-09-09T01:28:23;1.67;;;1.05;;
14732;SDS011;7457;50.960;6.830;2022-09-09T01:30:52;2.28;;;0.93;;
14732;SDS011;7457;50.960;6.830;2022-09-09T01:33:19;3.10;;;0.98;;
14732;SDS011;7457;50.960;6.830;2022-09-09T01:35:49;1.70;;;0.85;;
14732;SDS011;7457;50.960;6.830;2022-09-09T01:38:16;2.42;;;0.95;;
14732;SDS011;7457;50.960;6.830;2022-09-09T01:40:42;2.92;;;0.95;;
14732;SDS011;7457;50.960;6.830;2022-09-09T01:43:08;1.80;;;1.30;;
14732;SDS011;7457;50.960;6.830;2022-09-09T01:45:35;2.72;;;1.15;;
14732;SDS011;7457;50.960;6.830;2022-09-09T01:48:00;1.20;;;0.88;;
14732;SDS011;7457;50.960;6.830;2022-09-09T01:50:27;1.95;;;1.10;;
14732;SDS011;7457;50.960;6.830;2022-09-09T01:52:54;2.28;;;1.02;;
14732;SDS011;7457;50.960;6.830;2022-09-09T01:55:26;3.42;;;1.08;;
14732;SDS011;7457;50.960;6.830;2022-09-09T02:00:44;9.00;;;1.30;;
14732;SDS011;7457;50.960;6.830;2022-09-09T02:11:14;5.53;;;1.50;;
14732;SDS011;7457;50.960;6.830;2022-09-09T02:13:45;4.80;;;1.73;;
14732;SDS011;7457;50.960;6.830;2022-09-09T02:21:18;2.92;;;1.50;;
14732;SDS011;7457;50.960;6.830;2022-09-09T02:23:44;2.83;;;1.95;;
14732;SDS011;7457;50.960;6.830;2022-09-09T02:26:14;6.30;;;1.52;;
14732;SDS011;7457;50.960;6.830;2022-09-09T02:28:45;4.78;;;1.30;;
14732;SDS011;7457;50.960;6.830;2022-09-09T02:31:14;4.90;;;1.48;;
14732;SDS011;7457;50.960;6.830;2022-09-09T02:33:43;2.90;;;1.77;;
14732;SDS011;7457;50.960;6.830;2022-09-09T02:36:12;2.90;;;1.70;;
14732;SDS011;7457;50.960;6.830;2022-09-09T02:38:45;3.35;;;1.27;;
14732;SDS011;7457;50.960;6.830;2022-09-09T02:41:16;4.10;;;1.23;;
14732;SDS011;7457;50.960;6.830;2022-09-09T02:43:45;3.25;;;1.45;;
14732;SDS011;7457;50.960;6.830;2022-09-09T02:48:58;2.17;;;1.60;;
14732;SDS011;7457;50.960;6.830;2022-09-09T02:51:52;4.18;;;1.25;;
14732;SDS011;7457;50.960;6.830;2022-09-09T02:54:33;4.15;;;1.58;;
14732;SDS011;7457;50.960;6.830;2022-09-09T02:59:34;2.45;;;1.52;;
14732;SDS011;7457;50.960;6.830;2022-09-09T03:01:59;3.63;;;1.40;;
14732;SDS011;7457;50.960;6.830;2022-09-09T03:04:26;3.58;;;1.65;;
14732;SDS011;7457;50.960;6.830;2022-09-09T03:06:51;2.28;;;1.42;;
14732;SDS011;7457;50.960;6.830;2022-09-09T03:09:17;6.60;;;1.58;;
14732;SDS011;7457;50.960;6.830;2022-09-09T03:11:43;4.28;;;1.48;;
14732;SDS011;7457;50.960;6.830;2022-09-09T03:14:08;3.83;;;1.63;;
14732;SDS011;7457;50.960;6.830;2022-09-09T03:16:36;3.75;;;1.63;;
14732;SDS011;7457;50.960;6.830;2022-09-09T03:19:01;5.30;;;1.50;;
14732;SDS011;7457;50.960;6.830;2022-09-09T03:21:27;1.88;;;1.55;;
14732;SDS011;7457;50.960;6.830;2022-09-09T03:23:53;4.25;;;1.85;;
14732;SDS011;7457;50.960;6.830;2022-09-09T03:26:18;2.30;;;1.35;;
14732;SDS011;7457;50.960;6.830;2022-09-09T03:28:45;3.65;;;1.60;;
14732;SDS011;7457;50.960;6.830;2022-09-09T03:31:13;4.78;;;2.05;;
14732;SDS011;7457;50.960;6.830;2022-09-09T03:33:39;3.58;;;1.63;;
14732;SDS011;7457;50.960;6.830;2022-09-09T03:36:06;2.53;;;1.42;;
14732;SDS011;7457;50.960;6.830;2022-09-09T03:38:33;3.70;;;1.42;;
14732;SDS011;7457;50.960;6.830;2022-09-09T03:40:59;2.85;;;1.60;;
14732;SDS011;7457;50.960;6.830;2022-09-09T03:43:26;4.07;;;1.73;;
14732;SDS011;7457;50.960;6.830;2022-09-09T03:45:53;3.03;;;1.80;;
14732;SDS011;7457;50.960;6.830;2022-09-09T03:48:22;2.75;;;1.30;;
14732;SDS011;7457;50.960;6.830;2022-09-09T03:50:49;3.00;;;1.48;;
14732;SDS011;7457;50.960;6.830;2022-09-09T03:53:16;5.10;;;1.70;;
14732;SDS011;7457;50.960;6.830;2022-09-09T03:55:47;3.75;;;1.77;;
14732;SDS011;7457;50.960;6.830;2022-09-09T03:58:16;5.00;;;1.63;;
14732;SDS011;7457;50.960;6.830;2022-09-09T04:00:43;4.70;;;1.60;;
14732;SDS011;7457;50.960;6.830;2022-09-09T04:03:38;2.78;;;1.50;;
14732;SDS011;7457;50.960;6.830;2022-09-09T04:06:05;4.47;;;1.45;;
14732;SDS011;7457;50.960;6.830;2022-09-09T04:08:32;7.45;;;1.63;;
14732;SDS011;7457;50.960;6.830;2022-09-09T04:10:58;5.30;;;1.85;;
14732;SDS011;7457;50.960;6.830;2022-09-09T04:13:27;7.18;;;1.70;;
14732;SDS011;7457;50.960;6.830;2022-09-09T04:15:57;5.35;;;1.80;;
14732;SDS011;7457;50.960;6.830;2022-09-09T04:18:24;3.60;;;1.77;;
14732;SDS011;7457;50.960;6.830;2022-09-09T04:20:51;4.28;;;1.67;;
14732;SDS011;7457;50.960;6.830;2022-09-09T04:23:17;5.18;;;1.90;;
14732;SDS011;7457;50.960;6.830;2022-09-09T04:25:45;3.05;;;1.55;;
14732;SDS011;7457;50.960;6.830;2022-09-09T04:28:12;6.05;;;1.58;;
14732;SDS011;7457;50.960;6.830;2022-09-09T04:30:39;7.32;;;1.92;;
14732;SDS011;7457;50.960;6.830;2022-09-09T04:33:05;5.18;;;1.40;;
14732;SDS011;7457;50.960;6.830;2022-09-09T04:35:31;3.58;;;1.70;;
14732;SDS011;7457;50.960;6.830;2022-09-09T04:38:01;3.97;;;1.80;;
14732;SDS011;7457;50.960;6.830;2022-09-09T04:40:30;3.20;;;1.73;;
14732;SDS011;7457;50.960;6.830;2022-09-09T04:42:59;4.90;;;1.60;;
14732;SDS011;7457;50.960;6.830;2022-09-09T04:45:26;5.53;;;1.52;;
14732;SDS011;7457;50.960;6.830;2022-09-09T04:47:51;2.25;;;1.42;;
14732;SDS011;7457;50.960;6.830;2022-09-09T04:50:18;4.28;;;1.40;;
14732;SDS011;7457;50.960;6.830;2022-09-09T04:52:44;5.38;;;1.52;;
14732;SDS011;7457;50.960;6.830;2022-09-09T04:55:10;2.25;;;1.40;;
14732;SDS011;7457;50.960;6.830;2022-09-09T04:57:37;4.20;;;1.70;;
14732;SDS011;7457;50.960;6.830;2022-09-09T05:00:03;4.45;;;1.92;;
14732;SDS011;7457;50.960;6.830;2022-09-09T05:02:30;4.28;;;1.75;;
14732;SDS011;7457;50.960;6.830;2022-09-09T05:04:57;2.45;;;1.40;;
14732;SDS011;7457;50.960;6.830;2022-09-09T05:07:26;3.00;;;1.58;;
14732;SDS011;7457;50.960;6.830;2022-09-09T05:09:52;6.63;;;1.88;;
14732;SDS011;7457;50.960;6.830;2022-09-09T05:12:18;7.55;;;2.00;;
14732;SDS011;7457;50.960;6.830;2022-09-09T05:14:44;4.95;;;1.60;;
14732;SDS011;7457;50.960;6.830;2022-09-09T05:17:10;2.78;;;1.80;;
14732;SDS011;7457;50.960;6.830;2022-09-09T05:19:35;5.20;;;1.60;;
14732;SDS011;7457;50.960;6.830;2022-09-09T05:22:01;4.43;;;1.60;;
14732;SDS011;7457;50.960;6.830;2022-09-09T05:24:27;3.78;;;1.30;;
14732;SDS011;7457;50.960;6.830;2022-09-09T05:26:53;4.70;;;1.55;;
14732;SDS011;7457;50.960;6.830;2022-09-09T05:29:18;5.50;;;1.80;;
14732;SDS011;7457;50.960;6.830;2022-09-09T05:31:44;5.97;;;2.00;;
14732;SDS011;7457;50.960;6.830;2022-09-09T05:34:12;4.43;;;1.38;;
14732;SDS011;7457;50.960;6.830;2022-09-09T05:36:37;10.18;;;1.70;;
14732;SDS011;7457;50.960;6.830;2022-09-09T05:39:03;7.25;;;1.60;;
14732;SDS011;7457;50.960;6.830;2022-09-09T05:41:29;2.83;;;1.45;;
14732;SDS011;7457;50.960;6.830;2022-09-09T05:43:55;4.45;;;1.60;;
14732;SDS011;7457;50.960;6.830;2022-09-09T05:46:21;3.80;;;1.58;;
14732;SDS011;7457;50.960;6.830;2022-09-09T05:48:49;3.75;;;1.58;;
14732;SDS011;7457;50.960;6.830;2022-09-09T05:51:17;6.32;;;1.60;;
14732;SDS011;7457;50.960;6.830;2022-09-09T05:53:45;4.13;;;1.58;;
14732;SDS011;7457;50.960;6.830;2022-09-09T05:56:18;2.45;;;1.15;;
14732;SDS011;7457;50.960;6.830;2022-09-09T05:58:50;4.32;;;1.73;;
14732;SDS011;7457;50.960;6.830;2022-09-09T06:01:38;3.88;;;1.70;;
14732;SDS011;7457;50.960;6.830;2022-09-09T06:04:05;2.40;;;1.60;;
14732;SDS011;7457;50.960;6.830;2022-09-09T06:06:32;6.03;;;1.77;;
14732;SDS011;7457;50.960;6.830;2022-09-09T06:09:02;6.22;;;1.40;;
14732;SDS011;7457;50.960;6.830;2022-09-09T06:11:31;4.43;;;1.58;;
14732;SDS011;7457;50.960;6.830;2022-09-09T06:13:58;2.97;;;1.10;;
14732;SDS011;7457;50.960;6.830;2022-09-09T06:16:25;3.00;;;1.17;;
14732;SDS011;7457;50.960;6.830;2022-09-09T06:18:55;3.38;;;1.30;;
14732;SDS011;7457;50.960;6.830;2022-09-09T06:21:29;3.33;;;1.50;;
14732;SDS011;7457;50.960;6.830;2022-09-09T06:23:56;5.35;;;1.50;;
14732;SDS011;7457;50.960;6.830;2022-09-09T06:26:40;4.28;;;1.67;;
14732;SDS011;7457;50.960;6.830;2022-09-09T06:29:06;5.75;;;1.42;;
14732;SDS011;7457;50.960;6.830;2022-09-09T06:31:33;2.83;;;1.30;;
14732;SDS011;7457;50.960;6.830;2022-09-09T06:34:02;3.45;;;1.35;;
14732;SDS011;7457;50.960;6.830;2022-09-09T06:36:34;4.20;;;1.33;;
14732;SDS011;7457;50.960;6.830;2022-09-09T06:39:02;4.65;;;1.48;;
14732;SDS011;7457;50.960;6.830;2022-09-09T06:41:28;4.97;;;1.38;;
14732;SDS011;7457;50.960;6.830;2022-09-09T06:43:55;6.82;;;1.83;;
14732;SDS011;7457;50.960;6.830;2022-09-09T06:46:21;7.70;;;1.48;;
14732;SDS011;7457;50.960;6.830;2022-09-09T06:48:48;5.03;;;1.60;;
14732;SDS011;7457;50.960;6.830;2022-09-09T06:51:15;4.90;;;1.48;;
14732;SDS011;7457;50.960;6.830;2022-09-09T06:53:42;5.25;;;1.83;;
14732;SDS011;7457;50.960;6.830;2022-09-09T06:58:35;2.13;;;1.40;;
14732;SDS011;7457;50.960;6.830;2022-09-09T07:01:10;6.13;;;1.60;;
14732;SDS011;7457;50.960;6.830;2022-09-09T07:03:38;3.28;;;1.30;;
14732;SDS011;7457;50.960;6.830;2022-09-09T07:06:04;4.72;;;1.15;;
14732;SDS011;7457;50.960;6.830;2022-09-09T07:08:30;3.58;;;1.48;;
14732;SDS011;7457;50.960;6.830;2022-09-09T07:11:03;2.22;;;1.35;;
14732;SDS011;7457;50.960;6.830;2022-09-09T07:13:31;5.40;;;1.30;;
14732;SDS011;7457;50.960;6.830;2022-09-09T07:16:07;3.95;;;1.50;;
14732;SDS011;7457;50.960;6.830;2022-09-09T07:18:37;6.85;;;2.30;;
14732;SDS011;7457;50.960;6.830;2022-09-09T07:21:04;3.63;;;1.50;;
14732;SDS011;7457;50.960;6.830;2022-09-09T07:23:31;6.30;;;2.05;;
14732;SDS011;7457;50.960;6.830;2022-09-09T07:25:57;1.83;;;1.13;;
14732;SDS011;7457;50.960;6.830;2022-09-09T07:28:24;4.78;;;1.30;;
14732;SDS011;7457;50.960;6.830;2022-09-09T07:30:58;5.50;;;1.25;;
14732;SDS011;7457;50.960;6.830;2022-09-09T07:33:28;2.90;;;1.40;;
14732;SDS011;7457;50.960;6.830;2022-09-09T07:36:01;7.35;;;1.52;;
14732;SDS011;7457;50.960;6.830;2022-09-09T07:38:32;4.00;;;1.20;;
14732;SDS011;7457;50.960;6.830;2022-09-09T07:41:05;4.35;;;1.17;;
14732;SDS011;7457;50.960;6.830;2022-09-09T07:43:37;8.15;;;1.63;;
14732;SDS011;7457;50.960;6.830;2022-09-09T07:46:04;5.20;;;1.75;;
14732;SDS011;7457;50.960;6.830;2022-09-09T07:48:31;4.28;;;1.40;;
14732;SDS011;7457;50.960;6.830;2022-09-09T07:53:36;3.28;;;1.58;;
14732;SDS011;7457;50.960;6.830;2022-09-09T07:56:08;3.60;;;1.23;;
14732;SDS011;7457;50.960;6.830;2022-09-09T07:58:36;5.32;;;1.67;;
14732;SDS011;7457;50.960;6.830;2022-09-09T08:01:09;4.53;;;1.60;;
14732;SDS011;7457;50.960;6.830;2022-09-09T08:03:37;6.35;;;1.75;;
14732;SDS011;7457;50.960;6.830;2022-09-09T08:06:04;2.03;;;1.20;;
14732;SDS011;7457;50.960;6.830;2022-09-09T08:08:32;4.82;;;1.40;;
14732;SDS011;7457;50.960;6.830;2022-09-09T08:11:05;5.90;;;1.73;;
14732;SDS011;7457;50.960;6.830;2022-09-09T08:13:34;4.43;;;1.33;;
14732;SDS011;7457;50.960;6.830;2022-09-09T08:16:20;3.85;;;1.48;;
14732;SDS011;7457;50.960;6.830;2022-09-09T08:18:54;3.03;;;1.33;;
14732;SDS011;7457;50.960;6.830;2022-09-09T08:21:24;4.70;;;1.52;;
14732;SDS011;7457;50.960;6.830;2022-09-09T08:23:53;6.90;;;1.55;;
14732;SDS011;7457;50.960;6.830;2022-09-09T08:26:23;4.40;;;1.38;;
14732;SDS011;7457;50.960;6.830;2022-09-09T08:28:50;3.88;;;1.30;;
14732;SDS011;7457;50.960;6.830;2022-09-09T08:31:34;4.55;;;1.30;;
14732;SDS011;7457;50.960;6.830;2022-09-09T08:34:04;6.40;;;1.77;;
14732;SDS011;7457;50.960;6.830;2022-09-09T08:36:33;6.65;;;1.40;;
14732;SDS011;7457;50.960;6.830;2022-09-09T08:39:02;5.53;;;1.42;;
14732;SDS011;7457;50.960;6.830;2022-09-09T08:58:00;7.93;;;1.20;;
14732;SDS011;7457;50.960;6.830;2022-09-09T09:00:40;2.97;;;1.05;;
14732;SDS011;7457;50.960;6.830;2022-09-09T09:03:19;2.72;;;1.02;;
14732;SDS011;7457;50.960;6.830;2022-09-09T09:06:35;6.38;;;1.25;;
14732;SDS011;7457;50.960;6.830;2022-09-09T09:11:22;2.90;;;1.17;;
14732;SDS011;7457;50.960;6.830;2022-09-09T09:14:03;2.63;;;0.90;;
14732;SDS011;7457;50.960;6.830;2022-09-09T09:19:22;1.23;;;0.82;;
14732;SDS011;7457;50.960;6.830;2022-09-09T09:29:57;2.95;;;1.02;;
14732;SDS011;7457;50.960;6.830;2022-09-09T09:32:24;4.35;;;1.20;;
14732;SDS011;7457;50.960;6.830;2022-09-09T09:34:54;3.40;;;1.35;;
14732;SDS011;7457;50.960;6.830;2022-09-09T09:37:32;3.13;;;1.23;;
14732;SDS011;7457;50.960;6.830;2022-09-09T09:42:34;4.97;;;1.95;;
14732;SDS011;7457;50.960;6.830;2022-09-09T09:45:15;2.40;;;1.30;;
14732;SDS011;7457;50.960;6.830;2022-09-09T09:48:01;3.83;;;1.00;;
14732;SDS011;7457;50.960;6.830;2022-09-09T09:50:33;2.03;;;1.13;;
14732;SDS011;7457;50.960;6.830;2022-09-09T09:53:03;3.03;;;1.42;;
14732;SDS011;7457;50.960;6.830;2022-09-09T09:55:30;4.03;;;1.30;;
14732;SDS011;7457;50.960;6.830;2022-09-09T09:58:02;2.28;;;1.17;;
14732;SDS011;7457;50.960;6.830;2022-09-09T10:00:29;4.68;;;1.30;;
14732;SDS011;7457;50.960;6.830;2022-09-09T10:02:55;2.00;;;1.13;;
14732;SDS011;7457;50.960;6.830;2022-09-09T10:05:22;5.55;;;1.05;;
14732;SDS011;7457;50.960;6.830;2022-09-09T10:08:04;1.65;;;0.77;;
14732;SDS011;7457;50.960;6.830;2022-09-09T10:13:18;2.20;;;1.33;;
14732;SDS011;7457;50.960;6.830;2022-09-09T10:16:15;4.22;;;0.88;;
14732;SDS011;7457;50.960;6.830;2022-09-09T10:19:15;0.68;;;0.60;;
14732;SDS011;7457;50.960;6.830;2022-09-09T10:45:58;1.27;;;0.95;;
14732;SDS011;7457;50.960;6.830;2022-09-09T10:51:22;5.50;;;1.23;;
14732;SDS011;7457;50.960;6.830;2022-09-09T10:56:56;2.30;;;0.90;;
14732;SDS011;7457;50.960;6.830;2022-09-09T10:59:35;2.33;;;1.00;;
14732;SDS011;7457;50.960;6.830;2022-09-09T11:02:11;4.32;;;1.27;;
14732;SDS011;7457;50.960;6.830;2022-09-09T11:07:34;4.47;;;1.48;;
14732;SDS011;7457;50.960;6.830;2022-09-09T11:10:36;3.60;;;0.90;;
14732;SDS011;7457;50.960;6.830;2022-09-09T11:13:04;2.20;;;1.02;;
14732;SDS011;7457;50.960;6.830;2022-09-09T11:15:39;3.38;;;1.63;;
14732;SDS011;7457;50.960;6.830;2022-09-09T11:18:12;1.90;;;1.10;;
14732;SDS011;7457;50.960;6.830;2022-09-09T11:20:44;2.60;;;1.10;;
14732;SDS011;7457;50.960;6.830;2022-09-09T11:23:16;3.60;;;1.42;;
14732;SDS011;7457;50.960;6.830;2022-09-09T11:25:53;3.45;;;1.00;;
14732;SDS011;7457;50.960;6.830;2022-09-09T11:41:49;4.88;;;1.27;;
14732;SDS011;7457;50.960;6.830;2022-09-09T11:44:33;2.78;;;0.82;;
14732;SDS011;7457;50.960;6.830;2022-09-09T11:46:59;3.42;;;1.15;;
14732;SDS011;7457;50.960;6.830;2022-09-09T11:49:41;6.35;;;1.45;;
14732;SDS011;7457;50.960;6.830;2022-09-09T11:52:24;1.58;;;1.02;;
14732;SDS011;7457;50.960;6.830;2022-09-09T11:55:08;2.28;;;1.30;;
14732;SDS011;7457;50.960;6.830;2022-09-09T11:57:57;1.95;;;0.80;;
14732;SDS011;7457;50.960;6.830;2022-09-09T12:00:27;2.72;;;1.33;;
14732;SDS011;7457;50.960;6.830;2022-09-09T12:02:59;3.45;;;1.25;;
14732;SDS011;7457;50.960;6.830;2022-09-09T12:05:34;4.35;;;1.10;;
14732;SDS011;7457;50.960;6.830;2022-09-09T12:08:04;3.90;;;1.25;;
14732;SDS011;7457;50.960;6.830;2022-09-09T12:10:35;2.83;;;0.90;;
14732;SDS011;7457;50.960;6.830;2022-09-09T12:13:22;2.85;;;1.00;;
14732;SDS011;7457;50.960;6.830;2022-09-09T12:18:23;2.10;;;0.85;;
14732;SDS011;7457;50.960;6.830;2022-09-09T12:20:55;3.22;;;1.45;;
14732;SDS011;7457;50.960;6.830;2022-09-09T12:26:34;2.65;;;1.08;;
14732;SDS011;7457;50.960;6.830;2022-09-09T12:29:26;5.18;;;1.10;;
14732;SDS011;7457;50.960;6.830;2022-09-09T12:32:12;1.80;;;1.25;;
14732;SDS011;7457;50.960;6.830;2022-09-09T12:34:48;1.80;;;1.25;;
14732;SDS011;7457;50.960;6.830;2022-09-09T12:37:42;5.00;;;1.50;;
14732;SDS011;7457;50.960;6.830;2022-09-09T12:40:23;3.97;;;1.33;;
14732;SDS011;7457;50.960;6.830;2022-09-09T12:42:49;4.97;;;1.30;;
14732;SDS011;7457;50.960;6.830;2022-09-09T12:45:25;5.28;;;1.73;;
14732;SDS011;7457;50.960;6.830;2022-09-09T12:47:54;5.78;;;1.58;;
14732;SDS011;7457;50.960;6.830;2022-09-09T12:50:37;3.20;;;1.35;;
14732;SDS011;7457;50.960;6.830;2022-09-09T12:55:59;1.95;;;1.27;;
14732;SDS011;7457;50.960;6.830;2022-09-09T12:58:33;2.00;;;1.50;;
14732;SDS011;7457;50.960;6.830;2022-09-09T13:01:01;1.35;;;0.82;;
14732;SDS011;7457;50.960;6.830;2022-09-09T13:03:31;4.57;;;1.23;;
14732;SDS011;7457;50.960;6.830;2022-09-09T13:05:59;4.22;;;1.00;;
14732;SDS011;7457;50.960;6.830;2022-09-09T13:08:37;3.35;;;0.90;;
14732;SDS011;7457;50.960;6.830;2022-09-09T13:11:04;0.80;;;0.80;;
14732;SDS011;7457;50.960;6.830;2022-09-09T13:13:36;4.63;;;1.02;;
14732;SDS011;7457;50.960;6.830;2022-09-09T13:16:18;4.15;;;1.33;;
14732;SDS011;7457;50.960;6.830;2022-09-09T13:18:48;1.88;;;0.90;;
14732;SDS011;7457;50.960;6.830;2022-09-09T13:21:14;1.08;;;0.90;;
14732;SDS011;7457;50.960;6.830;2022-09-09T13:23:40;1.83;;;0.95;;
14732;SDS011;7457;50.960;6.830;2022-09-09T13:26:20;2.17;;;1.10;;
14732;SDS011;7457;50.960;6.830;2022-09-09T13:28:48;1.38;;;1.02;;
14732;SDS011;7457;50.960;6.830;2022-09-09T13:31:27;2.05;;;1.02;;
14732;SDS011;7457;50.960;6.830;2022-09-09T13:33:58;2.42;;;1.05;;
14732;SDS011;7457;50.960;6.830;2022-09-09T13:36:31;3.63;;;1.30;;
14732;SDS011;7457;50.960;6.830;2022-09-09T13:38:59;1.67;;;1.10;;
14732;SDS011;7457;50.960;6.830;2022-09-09T13:41:34;2.38;;;0.95;;
14732;SDS011;7457;50.960;6.830;2022-09-09T13:44:01;2.85;;;1.02;;
14732;SDS011;7457;50.960;6.830;2022-09-09T13:50:56;0.88;;;0.50;;
14732;SDS011;7457;50.960;6.830;2022-09-09T13:55:50;1.15;;;0.82;;
14732;SDS011;7457;50.960;6.830;2022-09-09T13:58:16;3.58;;;0.93;;
14732;SDS011;7457;50.960;6.830;2022-09-09T14:00:44;3.83;;;1.17;;
14732;SDS011;7457;50.960;6.830;2022-09-09T14:03:10;1.83;;;0.82;;
14732;SDS011;7457;50.960;6.830;2022-09-09T14:05:36;3.70;;;0.88;;
14732;SDS011;7457;50.960;6.830;2022-09-09T14:08:06;1.80;;;0.93;;
14732;SDS011;7457;50.960;6.830;2022-09-09T14:10:46;3.45;;;0.80;;
14732;SDS011;7457;50.960;6.830;2022-09-09T14:13:12;2.25;;;1.15;;
14732;SDS011;7457;50.960;6.830;2022-09-09T14:15:38;2.15;;;0.90;;
14732;SDS011;7457;50.960;6.830;2022-09-09T14:18:03;4.70;;;1.77;;
14732;SDS011;7457;50.960;6.830;2022-09-09T14:20:29;6.65;;;1.50;;
14732;SDS011;7457;50.960;6.830;2022-09-09T14:22:55;9.88;;;2.20;;
14732;SDS011;7457;50.960;6.830;2022-09-09T14:25:22;10.32;;;1.80;;
14732;SDS011;7457;50.960;6.830;2022-09-09T14:27:48;3.63;;;1.15;;
14732;SDS011;7457;50.960;6.830;2022-09-09T14:30:16;4.90;;;1.50;;
14732;SDS011;7457;50.960;6.830;2022-09-09T14:32:41;4.50;;;1.60;;
14732;SDS011;7457;50.960;6.830;2022-09-09T14:35:07;2.55;;;1.40;;
14732;SDS011;7457;50.960;6.830;2022-09-09T14:37:33;3.95;;;1.52;;
14732;SDS011;7457;50.960;6.830;2022-09-09T14:39:59;5.97;;;1.80;;
14732;SDS011;7457;50.960;6.830;2022-09-09T14:42:25;4.75;;;1.55;;
14732;SDS011;7457;50.960;6.830;2022-09-09T14:44:51;3.05;;;1.42;;
14732;SDS011;7457;50.960;6.830;2022-09-09T14:47:17;2.42;;;0.90;;
14732;SDS011;7457;50.960;6.830;2022-09-09T14:49:43;1.83;;;1.08;;
14732;SDS011;7457;50.960;6.830;2022-09-09T14:52:09;2.97;;;1.10;;
14732;SDS011;7457;50.960;6.830;2022-09-09T14:54:35;4.13;;;1.40;;
14732;SDS011;7457;50.960;6.830;2022-09-09T14:57:00;1.75;;;0.98;;
14732;SDS011;7457;50.960;6.830;2022-09-09T14:59:26;5.20;;;1.42;;
14732;SDS011;7457;50.960;6.830;2022-09-09T15:01:51;2.42;;;1.63;;
14732;SDS011;7457;50.960;6.830;2022-09-09T15:04:17;3.55;;;1.48;;
14732;SDS011;7457;50.960;6.830;2022-09-09T15:06:44;2.13;;;1.35;;
14732;SDS011;7457;50.960;6.830;2022-09-09T15:09:13;4.20;;;0.80;;
14732;SDS011;7457;50.960;6.830;2022-09-09T15:11:39;2.67;;;1.10;;
14732;SDS011;7457;50.960;6.830;2022-09-09T15:14:09;2.15;;;1.25;;
14732;SDS011;7457;50.960;6.830;2022-09-09T15:16:34;2.53;;;1.10;;
14732;SDS011;7457;50.960;6.830;2022-09-09T15:19:01;2.95;;;1.35;;
14732;SDS011;7457;50.960;6.830;2022-09-09T15:21:28;0.95;;;0.80;;
14732;SDS011;7457;50.960;6.830;2022-09-09T15:23:56;1.80;;;1.38;;
14732;SDS011;7457;50.960;6.830;2022-09-09T15:26:22;1.58;;;1.15;;
14732;SDS011;7457;50.960;6.830;2022-09-09T15:28:48;1.65;;;0.90;;
14732;SDS011;7457;50.960;6.830;2022-09-09T15:31:22;2.35;;;1.10;;
14732;SDS011;7457;50.960;6.830;2022-09-09T15:33:52;2.42;;;1.20;;
14732;SDS011;7457;50.960;6.830;2022-09-09T15:36:26;1.63;;;1.20;;
14732;SDS011;7457;50.960;6.830;2022-09-09T15:39:06;2.63;;;1.00;;
14732;SDS011;7457;50.960;6.830;2022-09-09T15:41:34;1.70;;;1.00;;
14732;SDS011;7457;50.960;6.830;2022-09-09T15:44:00;2.67;;;1.08;;
14732;SDS011;7457;50.960;6.830;2022-09-09T15:48:53;0.93;;;0.80;;
14732;SDS011;7457;50.960;6.830;2022-09-09T15:51:20;1.85;;;1.08;;
14732;SDS011;7457;50.960;6.830;2022-09-09T15:53:48;2.90;;;1.38;;
14732;SDS011;7457;50.960;6.830;2022-09-09T15:56:18;1.95;;;1.10;;
14732;SDS011;7457;50.960;6.830;2022-09-09T15:58:43;0.80;;;0.80;;
14732;SDS011;7457;50.960;6.830;2022-09-09T16:01:09;1.83;;;0.88;;
14732;SDS011;7457;50.960;6.830;2022-09-09T16:03:37;0.60;;;0.50;;
14732;SDS011;7457;50.960;6.830;2022-09-09T16:06:05;1.65;;;1.15;;
14732;SDS011;7457;50.960;6.830;2022-09-09T16:08:35;0.60;;;0.60;;
14732;SDS011;7457;50.960;6.830;2022-09-09T16:11:15;0.85;;;0.63;;
14732;SDS011;7457;50.960;6.830;2022-09-09T16:13:44;0.70;;;0.70;;
14732;SDS011;7457;50.960;6.830;2022-09-09T16:16:11;0.60;;;0.60;;
14732;SDS011;7457;50.960;6.830;2022-09-09T16:18:42;1.85;;;0.77;;
14732;SDS011;7457;50.960;6.830;2022-09-09T16:21:12;1.40;;;0.57;;
14732;SDS011;7457;50.960;6.830;2022-09-09T16:23:43;2.75;;;0.80;;
14732;SDS011;7457;50.960;6.830;2022-09-09T16:26:10;2.58;;;0.90;;
14732;SDS011;7457;50.960;6.830;2022-09-09T16:28:37;2.88;;;1.23;;
14732;SDS011;7457;50.960;6.830;2022-09-09T16:31:04;1.98;;;1.20;;
14732;SDS011;7457;50.960;6.830;2022-09-09T16:33:31;4.68;;;1.10;;
14732;SDS011;7457;50.960;6.830;2022-09-09T16:35:56;1.10;;;0.93;;
14732;SDS011;7457;50.960;6.830;2022-09-09T16:38:22;2.33;;;0.95;;
14732;SDS011;7457;50.960;6.830;2022-09-09T16:40:48;2.85;;;1.02;;
14732;SDS011;7457;50.960;6.830;2022-09-09T16:43:15;1.08;;;0.98;;
14732;SDS011;7457;50.960;6.830;2022-09-09T16:45:44;1.98;;;1.05;;
14732;SDS011;7457;50.960;6.830;2022-09-09T16:48:10;3.15;;;1.35;;
14732;SDS011;7457;50.960;6.830;2022-09-09T16:50:36;1.50;;;1.30;;
14732;SDS011;7457;50.960;6.830;2022-09-09T16:53:02;1.80;;;1.25;;
14732;SDS011;7457;50.960;6.830;2022-09-09T16:55:37;1.35;;;1.15;;
14732;SDS011;7457;50.960;6.830;2022-09-09T16:58:04;2.35;;;1.25;;
14732;SDS011;7457;50.960;6.830;2022-09-09T17:00:30;4.53;;;1.42;;
14732;SDS011;7457;50.960;6.830;2022-09-09T17:02:55;3.08;;;1.20;;
14732;SDS011;7457;50.960;6.830;2022-09-09T17:05:21;2.05;;;1.10;;
14732;SDS011;7457;50.960;6.830;2022-09-09T17:07:48;1.10;;;1.02;;
14732;SDS011;7457;50.960;6.830;2022-09-09T17:10:13;2.95;;;1.30;;
14732;SDS011;7457;50.960;6.830;2022-09-09T17:12:39;2.80;;;1.15;;
14732;SDS011;7457;50.960;6.830;2022-09-09T17:15:06;3.53;;;1.38;;
14732;SDS011;7457;50.960;6.830;2022-09-09T17:17:32;3.28;;;1.70;;
14732;SDS011;7457;50.960;6.830;2022-09-09T17:19:58;2.83;;;1.70;;
14732;SDS011;7457;50.960;6.830;2022-09-09T17:22:24;2.72;;;1.70;;
14732;SDS011;7457;50.960;6.830;2022-09-09T17:24:51;8.18;;;1.75;;
14732;SDS011;7457;50.960;6.830;2022-09-09T17:27:17;4.00;;;1.42;;
14732;SDS011;7457;50.960;6.830;2022-09-09T17:29:42;4.18;;;1.70;;
14732;SDS011;7457;50.960;6.830;2022-09-09T17:32:08;4.70;;;1.42;;
14732;SDS011;7457;50.960;6.830;2022-09-09T17:34:34;5.03;;;1.40;;
14732;SDS011;7457;50.960;6.830;2022-09-09T17:37:00;3.00;;;1.40;;
14732;SDS011;7457;50.960;6.830;2022-09-09T17:39:25;4.55;;;1.40;;
14732;SDS011;7457;50.960;6.830;2022-09-09T17:41:51;1.35;;;1.25;;
14732;SDS011;7457;50.960;6.830;2022-09-09T17:44:17;2.67;;;1.38;;
14732;SDS011;7457;50.960;6.830;2022-09-09T17:46:44;3.22;;;1.10;;
14732;SDS011;7457;50.960;6.830;2022-09-09T17:49:11;3.78;;;1.27;;
14732;SDS011;7457;50.960;6.830;2022-09-09T17:51:40;4.85;;;1.23;;
14732;SDS011;7457;50.960;6.830;2022-09-09T17:54:08;1.85;;;1.17;;
14732;SDS011;7457;50.960;6.830;2022-09-09T17:56:38;4.60;;;1.52;;
14732;SDS011;7457;50.960;6.830;2022-09-09T17:59:07;2.38;;;1.75;;
14732;SDS011;7457;50.960;6.830;2022-09-09T18:01:35;1.77;;;1.55;;
14732;SDS011;7457;50.960;6.830;2022-09-09T18:04:03;3.03;;;1.60;;
14732;SDS011;7457;50.960;6.830;2022-09-09T18:09:07;4.15;;;1.90;;
14732;SDS011;7457;50.960;6.830;2022-09-09T18:11:35;2.58;;;1.50;;